CDT,Max TemperatureF,Mean TemperatureF,Min TemperatureF,Max Dew PointF,MeanDew PointF,Min DewpointF,Max Humidity, Mean Humidity, Min Humidity, Max Sea Level PressureIn, Mean Sea Level PressureIn, Min Sea Level PressureIn, Max VisibilityMiles, Mean VisibilityMiles, Min VisibilityMiles, Max Wind SpeedMPH, Mean Wind SpeedMPH, Max Gust SpeedMPH,PrecipitationIn, CloudCover, Events, WindDirDegrees
2012-5-1,82,68,55,66,59,52,88,72,42,29.87,29.72,29.62,10,8,3,22,11,29,0.00,3,,166
2012-5-2,80,70,60,66,63,55,88,75,58,29.77,29.72,29.63,10,10,5,18,11,25,0.05,4,Rain,153
2012-5-3,78,69,60,70,63,55,88,77,65,29.87,29.82,29.75,10,9,2,18,10,28,0.57,3,Rain,157
2012-5-4,87,76,66,70,65,63,94,74,48,29.86,29.82,29.74,10,9,3,17,7,21,0.00,3,,134
2012-5-5,87,78,69,72,68,64,88,73,49,29.86,29.81,29.74,10,8,3,18,9,26,0.00,2,,139
2012-5-6,78,69,60,66,61,55,88,77,57,30.03,29.88,29.76,10,9,4,23,9,34,0.83,4,Rain,26
2012-5-7,69,61,53,57,46,39,88,60,35,30.11,30.06,29.99,10,10,10,17,11,29,0.00,3,,345
2012-5-8,68,57,46,46,39,32,87,54,28,30.09,30.06,30.01,10,10,10,18,5,26,0.00,1,,307
2012-5-9,66,55,44,45,40,32,82,58,30,30.12,30.06,29.97,10,10,10,12,3,17,0.00,1,,322
2012-5-10,82,65,48,52,45,39,87,52,24,29.97,29.89,29.81,10,10,10,21,7,25,0.00,1,,166
2012-5-11,75,64,53,54,47,32,82,53,33,30.24,30.05,29.87,10,10,7,20,8,29,0.00,1,,329
2012-5-12,71,61,51,45,38,34,67,46,25,30.35,30.29,30.24,10,10,5,16,10,22,0.00,3,Rain,24
2012-5-13,73,60,48,45,34,19,82,43,13,30.31,30.24,30.17,10,10,5,10,1,,0.00,1,,73
2012-5-14,82,63,44,48,40,30,87,48,16,30.18,30.10,30.00,10,10,7,15,2,20,0.00,1,,251
2012-5-15,89,71,53,52,36,18,77,36,9,30.07,30.00,29.94,10,10,10,17,6,28,0.00,1,,279
2012-5-16,78,61,44,43,32,21,76,37,12,30.17,30.10,30.01,10,10,10,13,5,,0.00,1,,89
2012-5-17,87,72,57,52,45,39,63,42,18,30.04,29.93,29.83,10,10,7,24,12,30,0.00,1,,159
2012-5-18,89,74,60,55,49,45,63,42,22,29.87,29.82,29.74,10,10,10,25,14,33,0.00,1,,163
2012-5-19,86,78,69,57,54,46,64,48,33,29.86,29.80,29.75,10,10,10,28,15,41,0.00,1,Rain,171
2012-5-20,75,65,55,57,47,32,82,56,27,30.28,30.10,29.84,10,10,10,16,12,25,0.00,5,,329
2012-5-21,75,57,39,41,36,28,87,45,18,30.31,30.24,30.12,10,10,5,10,4,,0.00,1,,108
2012-5-22,84,70,55,45,38,28,59,36,13,30.12,29.94,29.76,10,10,10,24,10,29,0.00,1,Rain,172
2012-5-23,91,76,62,59,50,43,54,39,26,29.75,29.56,29.45,10,10,10,30,17,41,0.00,1,,165
2012-5-24,78,69,57,61,57,52,82,60,47,29.81,29.52,29.41,10,10,10,22,13,32,0.00,3,,251
2012-5-25,77,65,53,59,53,45,88,70,32,29.97,29.92,29.82,10,10,7,15,5,24,0.03,3,Rain,92
2012-5-26,93,78,64,72,65,55,83,66,41,29.94,29.87,29.81,10,10,10,24,12,31,0.00,2,,144
2012-5-27,87,79,71,66,64,54,73,67,40,29.84,29.82,29.67,10,10,10,23,15,31,0.00,1,,188
2012-5-28,84,70,57,61,42,25,88,39,11,29.89,29.83,29.70,10,10,10,15,8,22,0.00,1,,327
2012-5-29,78,64,50,48,39,32,82,44,18,30.04,29.97,29.87,10,10,10,16,5,21,0.00,1,,351
2012-5-30,73,60,46,55,46,39,88,64,29,30.06,29.96,29.82,10,10,3,15,4,20,0.23,2,Rain,53
2012-5-31,59,52,46,54,47,41,94,77,63,30.07,29.98,29.89,10,10,4,20,9,26,0.27,7,Rain,2